Aviation Digital Data Service (ADDS)

Output produced by TAFs form (2130 UTC 24 May 2016)
found at http://www.aviationweather.gov/adds/tafs/
 
KMRB 241720Z 2418/2518 31010G16KT P6SM FEW050 
     FM250000 28005KT P6SM FEW150 FEW200